sensor_id;sensor_type;location;lat;lon;timestamp;P1;durP1;ratioP1;P2;durP2;ratioP2
9288;SDS011;4683;50.864;12.086;2023-12-20T00:01:58;2.60;;;2.40;;
9288;SDS011;4683;50.864;12.086;2023-12-20T00:04:44;2.20;;;2.00;;
9288;SDS011;4683;50.864;12.086;2023-12-20T00:07:36;1.97;;;1.87;;
9288;SDS011;4683;50.864;12.086;2023-12-20T00:10:08;2.20;;;2.00;;
9288;SDS011;4683;50.864;12.086;2023-12-20T00:12:54;1.90;;;1.77;;
9288;SDS011;4683;50.864;12.086;2023-12-20T00:15:36;2.20;;;2.00;;
9288;SDS011;4683;50.864;12.086;2023-12-20T00:18:25;1.80;;;1.70;;
9288;SDS011;4683;50.864;12.086;2023-12-20T00:21:03;1.60;;;1.50;;
9288;SDS011;4683;50.864;12.086;2023-12-20T00:23:40;1.80;;;1.70;;
9288;SDS011;4683;50.864;12.086;2023-12-20T00:26:27;1.80;;;1.70;;
9288;SDS011;4683;50.864;12.086;2023-12-20T00:28:57;1.63;;;1.53;;
9288;SDS011;4683;50.864;12.086;2023-12-20T00:31:41;1.10;;;1.00;;
9288;SDS011;4683;50.864;12.086;2023-12-20T00:34:34;1.00;;;0.97;;
9288;SDS011;4683;50.864;12.086;2023-12-20T00:37:17;1.40;;;0.90;;
9288;SDS011;4683;50.864;12.086;2023-12-20T00:40:03;1.07;;;0.93;;
9288;SDS011;4683;50.864;12.086;2023-12-20T00:42:55;0.50;;;0.50;;
9288;SDS011;4683;50.864;12.086;2023-12-20T00:45:28;1.03;;;0.63;;
9288;SDS011;4683;50.864;12.086;2023-12-20T00:48:10;0.47;;;0.47;;
9288;SDS011;4683;50.864;12.086;2023-12-20T00:50:54;0.70;;;0.70;;
9288;SDS011;4683;50.864;12.086;2023-12-20T00:53:37;0.77;;;0.77;;
9288;SDS011;4683;50.864;12.086;2023-12-20T00:56:13;0.87;;;0.80;;
9288;SDS011;4683;50.864;12.086;2023-12-20T00:58:47;0.33;;;0.30;;
9288;SDS011;4683;50.864;12.086;2023-12-20T01:01:15;0.50;;;0.50;;
9288;SDS011;4683;50.864;12.086;2023-12-20T01:04:04;0.30;;;0.30;;
9288;SDS011;4683;50.864;12.086;2023-12-20T01:06:48;0.30;;;0.30;;
9288;SDS011;4683;50.864;12.086;2023-12-20T01:09:38;0.30;;;0.30;;
9288;SDS011;4683;50.864;12.086;2023-12-20T01:15:17;0.43;;;0.30;;
9288;SDS011;4683;50.864;12.086;2023-12-20T01:17:59;0.50;;;0.30;;
9288;SDS011;4683;50.864;12.086;2023-12-20T01:20:27;0.83;;;0.70;;
9288;SDS011;4683;50.864;12.086;2023-12-20T01:23:09;0.30;;;0.30;;
9288;SDS011;4683;50.864;12.086;2023-12-20T01:25:44;1.27;;;0.80;;
9288;SDS011;4683;50.864;12.086;2023-12-20T01:28:35;0.47;;;0.37;;
9288;SDS011;4683;50.864;12.086;2023-12-20T01:31:22;0.40;;;0.40;;
9288;SDS011;4683;50.864;12.086;2023-12-20T01:34:00;0.30;;;0.30;;
9288;SDS011;4683;50.864;12.086;2023-12-20T01:36:37;1.07;;;0.47;;
9288;SDS011;4683;50.864;12.086;2023-12-20T01:42:59;0.37;;;0.37;;
9288;SDS011;4683;50.864;12.086;2023-12-20T01:45:30;0.30;;;0.30;;
9288;SDS011;4683;50.864;12.086;2023-12-20T01:48:27;0.30;;;0.30;;
9288;SDS011;4683;50.864;12.086;2023-12-20T01:51:07;0.30;;;0.30;;
9288;SDS011;4683;50.864;12.086;2023-12-20T01:53:48;0.30;;;0.30;;
9288;SDS011;4683;50.864;12.086;2023-12-20T01:56:26;0.40;;;0.40;;
9288;SDS011;4683;50.864;12.086;2023-12-20T01:58:58;0.13;;;0.13;;
9288;SDS011;4683;50.864;12.086;2023-12-20T02:01:29;0.30;;;0.27;;
9288;SDS011;4683;50.864;12.086;2023-12-20T02:03:59;0.10;;;0.10;;
9288;SDS011;4683;50.864;12.086;2023-12-20T02:06:34;0.20;;;0.20;;
9288;SDS011;4683;50.864;12.086;2023-12-20T02:09:10;0.63;;;0.10;;
9288;SDS011;4683;50.864;12.086;2023-12-20T02:11:43;0.10;;;0.10;;
9288;SDS011;4683;50.864;12.086;2023-12-20T02:14:37;0.90;;;0.20;;
9288;SDS011;4683;50.864;12.086;2023-12-20T02:17:06;0.43;;;0.30;;
9288;SDS011;4683;50.864;12.086;2023-12-20T02:19:41;0.13;;;0.13;;
9288;SDS011;4683;50.864;12.086;2023-12-20T02:22:18;0.63;;;0.10;;
9288;SDS011;4683;50.864;12.086;2023-12-20T02:24:46;0.10;;;0.10;;
9288;SDS011;4683;50.864;12.086;2023-12-20T02:27:28;0.50;;;0.30;;
9288;SDS011;4683;50.864;12.086;2023-12-20T02:30:10;0.20;;;0.20;;
9288;SDS011;4683;50.864;12.086;2023-12-20T02:32:50;0.23;;;0.23;;
9288;SDS011;4683;50.864;12.086;2023-12-20T02:35:33;0.30;;;0.20;;
9288;SDS011;4683;50.864;12.086;2023-12-20T02:38:25;0.20;;;0.20;;
9288;SDS011;4683;50.864;12.086;2023-12-20T02:41:07;0.30;;;0.30;;
9288;SDS011;4683;50.864;12.086;2023-12-20T02:43:45;0.30;;;0.20;;
9288;SDS011;4683;50.864;12.086;2023-12-20T02:46:25;0.23;;;0.20;;
9288;SDS011;4683;50.864;12.086;2023-12-20T02:49:03;0.10;;;0.10;;
9288;SDS011;4683;50.864;12.086;2023-12-20T02:51:41;0.33;;;0.20;;
9288;SDS011;4683;50.864;12.086;2023-12-20T02:54:20;0.13;;;0.13;;
9288;SDS011;4683;50.864;12.086;2023-12-20T02:57:03;0.40;;;0.10;;
9288;SDS011;4683;50.864;12.086;2023-12-20T02:59:33;0.00;;;0.00;;
9288;SDS011;4683;50.864;12.086;2023-12-20T03:02:16;0.10;;;0.10;;
9288;SDS011;4683;50.864;12.086;2023-12-20T03:05:03;0.30;;;0.30;;
9288;SDS011;4683;50.864;12.086;2023-12-20T03:07:46;0.13;;;0.13;;
9288;SDS011;4683;50.864;12.086;2023-12-20T03:10:30;0.20;;;0.20;;
9288;SDS011;4683;50.864;12.086;2023-12-20T03:15:41;0.30;;;0.30;;
9288;SDS011;4683;50.864;12.086;2023-12-20T03:18:19;0.10;;;0.10;;
9288;SDS011;4683;50.864;12.086;2023-12-20T03:21:00;0.20;;;0.10;;
9288;SDS011;4683;50.864;12.086;2023-12-20T03:23:42;0.10;;;0.10;;
9288;SDS011;4683;50.864;12.086;2023-12-20T03:26:14;0.10;;;0.10;;
9288;SDS011;4683;50.864;12.086;2023-12-20T03:28:42;0.20;;;0.20;;
9288;SDS011;4683;50.864;12.086;2023-12-20T03:31:30;0.10;;;0.10;;
9288;SDS011;4683;50.864;12.086;2023-12-20T03:34:12;0.30;;;0.10;;
9288;SDS011;4683;50.864;12.086;2023-12-20T03:36:56;0.43;;;0.33;;
9288;SDS011;4683;50.864;12.086;2023-12-20T03:39:37;0.10;;;0.10;;
9288;SDS011;4683;50.864;12.086;2023-12-20T03:42:25;0.30;;;0.20;;
9288;SDS011;4683;50.864;12.086;2023-12-20T03:45:10;0.10;;;0.10;;
9288;SDS011;4683;50.864;12.086;2023-12-20T03:47:40;0.10;;;0.10;;
9288;SDS011;4683;50.864;12.086;2023-12-20T03:53:55;1.77;;;0.27;;
9288;SDS011;4683;50.864;12.086;2023-12-20T03:56:23;0.20;;;0.10;;
9288;SDS011;4683;50.864;12.086;2023-12-20T03:59:00;0.10;;;0.10;;
9288;SDS011;4683;50.864;12.086;2023-12-20T04:01:46;0.20;;;0.20;;
9288;SDS011;4683;50.864;12.086;2023-12-20T04:04:25;0.47;;;0.37;;
9288;SDS011;4683;50.864;12.086;2023-12-20T04:06:53;0.33;;;0.30;;
9288;SDS011;4683;50.864;12.086;2023-12-20T04:09:30;0.20;;;0.20;;
9288;SDS011;4683;50.864;12.086;2023-12-20T04:12:18;0.20;;;0.20;;
9288;SDS011;4683;50.864;12.086;2023-12-20T04:14:50;0.30;;;0.30;;
9288;SDS011;4683;50.864;12.086;2023-12-20T04:17:19;0.60;;;0.40;;
9288;SDS011;4683;50.864;12.086;2023-12-20T04:19:52;0.37;;;0.20;;
9288;SDS011;4683;50.864;12.086;2023-12-20T04:22:26;0.20;;;0.10;;
9288;SDS011;4683;50.864;12.086;2023-12-20T04:24:59;0.20;;;0.20;;
9288;SDS011;4683;50.864;12.086;2023-12-20T04:27:54;0.17;;;0.17;;
9288;SDS011;4683;50.864;12.086;2023-12-20T04:30:39;0.30;;;0.30;;
9288;SDS011;4683;50.864;12.086;2023-12-20T04:33:08;0.20;;;0.17;;
9288;SDS011;4683;50.864;12.086;2023-12-20T04:35:51;0.30;;;0.30;;
9288;SDS011;4683;50.864;12.086;2023-12-20T04:38:38;1.10;;;0.27;;
9288;SDS011;4683;50.864;12.086;2023-12-20T04:41:06;0.57;;;0.20;;
9288;SDS011;4683;50.864;12.086;2023-12-20T04:43:52;0.10;;;0.10;;
9288;SDS011;4683;50.864;12.086;2023-12-20T04:46:35;0.13;;;0.13;;
9288;SDS011;4683;50.864;12.086;2023-12-20T04:49:08;0.20;;;0.20;;
9288;SDS011;4683;50.864;12.086;2023-12-20T04:52:01;0.20;;;0.20;;
9288;SDS011;4683;50.864;12.086;2023-12-20T04:54:43;0.20;;;0.20;;
9288;SDS011;4683;50.864;12.086;2023-12-20T04:57:11;0.20;;;0.20;;
9288;SDS011;4683;50.864;12.086;2023-12-20T04:59:52;0.10;;;0.10;;
9288;SDS011;4683;50.864;12.086;2023-12-20T05:02:39;0.20;;;0.20;;
9288;SDS011;4683;50.864;12.086;2023-12-20T05:05:18;1.13;;;0.40;;
9288;SDS011;4683;50.864;12.086;2023-12-20T05:08:04;0.60;;;0.60;;
9288;SDS011;4683;50.864;12.086;2023-12-20T05:10:52;0.20;;;0.20;;
9288;SDS011;4683;50.864;12.086;2023-12-20T05:13:29;0.40;;;0.40;;
9288;SDS011;4683;50.864;12.086;2023-12-20T05:16:04;0.37;;;0.20;;
9288;SDS011;4683;50.864;12.086;2023-12-20T05:18:50;0.67;;;0.30;;
9288;SDS011;4683;50.864;12.086;2023-12-20T05:21:29;0.60;;;0.50;;
9288;SDS011;4683;50.864;12.086;2023-12-20T05:24:02;1.70;;;0.20;;
9288;SDS011;4683;50.864;12.086;2023-12-20T05:26:44;0.30;;;0.30;;
9288;SDS011;4683;50.864;12.086;2023-12-20T05:29:16;0.20;;;0.20;;
9288;SDS011;4683;50.864;12.086;2023-12-20T05:32:01;0.33;;;0.33;;
9288;SDS011;4683;50.864;12.086;2023-12-20T05:34:50;1.17;;;0.33;;
9288;SDS011;4683;50.864;12.086;2023-12-20T05:37:36;1.03;;;0.73;;
9288;SDS011;4683;50.864;12.086;2023-12-20T05:40:16;1.80;;;1.03;;
9288;SDS011;4683;50.864;12.086;2023-12-20T05:42:59;0.80;;;0.80;;
9288;SDS011;4683;50.864;12.086;2023-12-20T05:45:38;0.67;;;0.67;;
9288;SDS011;4683;50.864;12.086;2023-12-20T05:52:15;0.30;;;0.30;;
9288;SDS011;4683;50.864;12.086;2023-12-20T05:55:00;0.60;;;0.50;;
9288;SDS011;4683;50.864;12.086;2023-12-20T05:57:55;0.70;;;0.60;;
9288;SDS011;4683;50.864;12.086;2023-12-20T06:00:24;0.57;;;0.57;;
9288;SDS011;4683;50.864;12.086;2023-12-20T06:03:01;1.00;;;0.93;;
9288;SDS011;4683;50.864;12.086;2023-12-20T06:05:45;0.30;;;0.30;;
9288;SDS011;4683;50.864;12.086;2023-12-20T06:08:32;0.80;;;0.80;;
9288;SDS011;4683;50.864;12.086;2023-12-20T06:11:19;0.73;;;0.73;;
9288;SDS011;4683;50.864;12.086;2023-12-20T06:14:00;0.93;;;0.70;;
9288;SDS011;4683;50.864;12.086;2023-12-20T06:16:35;0.47;;;0.47;;
9288;SDS011;4683;50.864;12.086;2023-12-20T06:19:14;0.80;;;0.80;;
9288;SDS011;4683;50.864;12.086;2023-12-20T06:21:53;0.80;;;0.80;;
9288;SDS011;4683;50.864;12.086;2023-12-20T06:24:35;0.80;;;0.80;;
9288;SDS011;4683;50.864;12.086;2023-12-20T06:27:25;1.97;;;0.83;;
9288;SDS011;4683;50.864;12.086;2023-12-20T06:29:53;0.70;;;0.70;;
9288;SDS011;4683;50.864;12.086;2023-12-20T06:32:24;0.73;;;0.73;;
9288;SDS011;4683;50.864;12.086;2023-12-20T06:35:11;0.87;;;0.87;;
9288;SDS011;4683;50.864;12.086;2023-12-20T06:38:05;0.60;;;0.40;;
9288;SDS011;4683;50.864;12.086;2023-12-20T06:40:51;0.67;;;0.40;;
9288;SDS011;4683;50.864;12.086;2023-12-20T06:43:46;0.93;;;0.87;;
9288;SDS011;4683;50.864;12.086;2023-12-20T06:46:32;0.90;;;0.90;;
9288;SDS011;4683;50.864;12.086;2023-12-20T06:49:03;0.70;;;0.70;;
9288;SDS011;4683;50.864;12.086;2023-12-20T06:51:45;1.63;;;0.90;;
9288;SDS011;4683;50.864;12.086;2023-12-20T06:54:13;0.70;;;0.70;;
9288;SDS011;4683;50.864;12.086;2023-12-20T06:57:03;1.20;;;1.20;;
9288;SDS011;4683;50.864;12.086;2023-12-20T06:59:45;2.20;;;1.20;;
9288;SDS011;4683;50.864;12.086;2023-12-20T07:02:15;1.70;;;1.10;;
9288;SDS011;4683;50.864;12.086;2023-12-20T07:04:52;1.57;;;1.47;;
9288;SDS011;4683;50.864;12.086;2023-12-20T07:07:23;1.50;;;1.40;;
9288;SDS011;4683;50.864;12.086;2023-12-20T07:10:03;1.40;;;1.30;;
9288;SDS011;4683;50.864;12.086;2023-12-20T07:12:38;2.53;;;2.33;;
9288;SDS011;4683;50.864;12.086;2023-12-20T07:15:06;5.27;;;3.70;;
9288;SDS011;4683;50.864;12.086;2023-12-20T07:17:41;4.53;;;3.43;;
9288;SDS011;4683;50.864;12.086;2023-12-20T07:20:27;3.07;;;2.50;;
9288;SDS011;4683;50.864;12.086;2023-12-20T07:23:09;1.50;;;1.37;;
9288;SDS011;4683;50.864;12.086;2023-12-20T07:25:44;1.60;;;1.50;;
9288;SDS011;4683;50.864;12.086;2023-12-20T07:28:32;2.60;;;1.70;;
9288;SDS011;4683;50.864;12.086;2023-12-20T07:31:09;2.23;;;2.03;;
9288;SDS011;4683;50.864;12.086;2023-12-20T07:33:48;2.00;;;1.90;;
9288;SDS011;4683;50.864;12.086;2023-12-20T07:36:25;2.23;;;2.03;;
9288;SDS011;4683;50.864;12.086;2023-12-20T07:38:54;2.07;;;1.70;;
9288;SDS011;4683;50.864;12.086;2023-12-20T07:41:40;3.23;;;1.67;;
9288;SDS011;4683;50.864;12.086;2023-12-20T07:44:31;1.60;;;1.47;;
9288;SDS011;4683;50.864;12.086;2023-12-20T07:47:35;1.00;;;1.00;;
9288;SDS011;4683;50.864;12.086;2023-12-20T07:50:28;2.30;;;1.77;;
9288;SDS011;4683;50.864;12.086;2023-12-20T07:53:31;1.60;;;1.50;;
9288;SDS011;4683;50.864;12.086;2023-12-20T07:56:28;1.40;;;1.30;;
9288;SDS011;4683;50.864;12.086;2023-12-20T07:59:50;1.67;;;1.57;;
9288;SDS011;4683;50.864;12.086;2023-12-20T08:02:31;1.23;;;1.13;;
9288;SDS011;4683;50.864;12.086;2023-12-20T08:05:00;1.70;;;1.60;;
9288;SDS011;4683;50.864;12.086;2023-12-20T08:07:37;1.70;;;1.43;;
9288;SDS011;4683;50.864;12.086;2023-12-20T08:10:10;1.67;;;1.57;;
9288;SDS011;4683;50.864;12.086;2023-12-20T08:12:52;1.90;;;1.70;;
9288;SDS011;4683;50.864;12.086;2023-12-20T08:15:30;1.63;;;1.50;;
9288;SDS011;4683;50.864;12.086;2023-12-20T08:18:12;2.40;;;1.60;;
9288;SDS011;4683;50.864;12.086;2023-12-20T08:20:57;2.57;;;1.90;;
9288;SDS011;4683;50.864;12.086;2023-12-20T08:23:37;1.93;;;1.70;;
9288;SDS011;4683;50.864;12.086;2023-12-20T08:26:32;1.50;;;1.40;;
9288;SDS011;4683;50.864;12.086;2023-12-20T08:29:00;3.27;;;2.23;;
9288;SDS011;4683;50.864;12.086;2023-12-20T08:31:52;3.23;;;1.53;;
9288;SDS011;4683;50.864;12.086;2023-12-20T08:34:29;1.40;;;1.30;;
9288;SDS011;4683;50.864;12.086;2023-12-20T08:37:01;2.10;;;1.70;;
9288;SDS011;4683;50.864;12.086;2023-12-20T08:39:40;2.70;;;1.33;;
9288;SDS011;4683;50.864;12.086;2023-12-20T08:42:15;2.23;;;2.03;;
9288;SDS011;4683;50.864;12.086;2023-12-20T08:44:53;1.60;;;1.50;;
9288;SDS011;4683;50.864;12.086;2023-12-20T08:47:40;1.57;;;1.43;;
9288;SDS011;4683;50.864;12.086;2023-12-20T08:50:20;1.77;;;1.67;;
9288;SDS011;4683;50.864;12.086;2023-12-20T08:53:03;1.50;;;1.40;;
9288;SDS011;4683;50.864;12.086;2023-12-20T08:55:43;1.40;;;1.30;;
9288;SDS011;4683;50.864;12.086;2023-12-20T08:58:23;2.97;;;1.70;;
9288;SDS011;4683;50.864;12.086;2023-12-20T09:01:03;2.80;;;2.00;;
9288;SDS011;4683;50.864;12.086;2023-12-20T09:03:48;2.17;;;1.27;;
9288;SDS011;4683;50.864;12.086;2023-12-20T09:06:38;1.60;;;0.93;;
9288;SDS011;4683;50.864;12.086;2023-12-20T09:09:20;2.57;;;1.73;;
9288;SDS011;4683;50.864;12.086;2023-12-20T09:12:01;1.17;;;1.07;;
9288;SDS011;4683;50.864;12.086;2023-12-20T09:14:45;1.23;;;1.13;;
9288;SDS011;4683;50.864;12.086;2023-12-20T09:17:28;5.90;;;4.67;;
9288;SDS011;4683;50.864;12.086;2023-12-20T09:20:12;2.70;;;2.50;;
9288;SDS011;4683;50.864;12.086;2023-12-20T09:22:50;3.27;;;2.60;;
9288;SDS011;4683;50.864;12.086;2023-12-20T09:25:30;1.93;;;1.40;;
9288;SDS011;4683;50.864;12.086;2023-12-20T09:28:26;3.00;;;2.13;;
9288;SDS011;4683;50.864;12.086;2023-12-20T09:31:16;1.97;;;1.70;;
9288;SDS011;4683;50.864;12.086;2023-12-20T09:34:04;2.33;;;1.67;;
9288;SDS011;4683;50.864;12.086;2023-12-20T09:37:01;2.23;;;1.80;;
9288;SDS011;4683;50.864;12.086;2023-12-20T09:39:40;2.00;;;1.80;;
9288;SDS011;4683;50.864;12.086;2023-12-20T09:42:09;2.50;;;2.30;;
9288;SDS011;4683;50.864;12.086;2023-12-20T09:45:03;1.83;;;1.67;;
9288;SDS011;4683;50.864;12.086;2023-12-20T09:47:54;1.87;;;1.07;;
9288;SDS011;4683;50.864;12.086;2023-12-20T09:50:42;2.77;;;2.50;;
9288;SDS011;4683;50.864;12.086;2023-12-20T09:53:21;3.53;;;1.93;;
9288;SDS011;4683;50.864;12.086;2023-12-20T09:56:06;3.20;;;1.83;;
9288;SDS011;4683;50.864;12.086;2023-12-20T09:58:46;1.47;;;1.37;;
9288;SDS011;4683;50.864;12.086;2023-12-20T10:01:26;3.13;;;1.73;;
9288;SDS011;4683;50.864;12.086;2023-12-20T10:04:10;1.10;;;1.10;;
9288;SDS011;4683;50.864;12.086;2023-12-20T10:06:55;2.60;;;1.63;;
9288;SDS011;4683;50.864;12.086;2023-12-20T10:09:44;2.20;;;2.10;;
9288;SDS011;4683;50.864;12.086;2023-12-20T10:12:30;1.80;;;1.70;;
9288;SDS011;4683;50.864;12.086;2023-12-20T10:15:20;2.10;;;1.40;;
9288;SDS011;4683;50.864;12.086;2023-12-20T10:18:11;1.57;;;1.13;;
9288;SDS011;4683;50.864;12.086;2023-12-20T10:21:00;1.33;;;1.23;;
9288;SDS011;4683;50.864;12.086;2023-12-20T10:23:58;2.20;;;1.70;;
9288;SDS011;4683;50.864;12.086;2023-12-20T10:26:44;1.90;;;1.47;;
9288;SDS011;4683;50.864;12.086;2023-12-20T10:29:34;2.33;;;1.97;;
9288;SDS011;4683;50.864;12.086;2023-12-20T10:32:21;2.30;;;1.43;;
9288;SDS011;4683;50.864;12.086;2023-12-20T10:34:59;1.33;;;1.20;;
9288;SDS011;4683;50.864;12.086;2023-12-20T10:37:51;3.47;;;2.00;;
9288;SDS011;4683;50.864;12.086;2023-12-20T10:40:24;2.83;;;1.03;;
9288;SDS011;4683;50.864;12.086;2023-12-20T10:43:10;2.53;;;1.67;;
9288;SDS011;4683;50.864;12.086;2023-12-20T10:45:51;4.87;;;1.90;;
9288;SDS011;4683;50.864;12.086;2023-12-20T10:48:45;3.23;;;2.20;;
9288;SDS011;4683;50.864;12.086;2023-12-20T10:51:35;1.50;;;1.40;;
9288;SDS011;4683;50.864;12.086;2023-12-20T10:54:25;1.40;;;1.30;;
9288;SDS011;4683;50.864;12.086;2023-12-20T10:57:14;2.67;;;1.30;;
9288;SDS011;4683;50.864;12.086;2023-12-20T10:59:55;1.80;;;1.30;;
9288;SDS011;4683;50.864;12.086;2023-12-20T11:02:31;4.40;;;2.23;;
9288;SDS011;4683;50.864;12.086;2023-12-20T11:05:24;2.70;;;1.93;;
9288;SDS011;4683;50.864;12.086;2023-12-20T11:08:06;1.77;;;1.40;;
9288;SDS011;4683;50.864;12.086;2023-12-20T11:10:42;2.60;;;1.30;;
9288;SDS011;4683;50.864;12.086;2023-12-20T11:13:34;1.80;;;1.23;;
9288;SDS011;4683;50.864;12.086;2023-12-20T11:16:24;1.70;;;1.33;;
9288;SDS011;4683;50.864;12.086;2023-12-20T11:19:07;3.30;;;0.93;;
9288;SDS011;4683;50.864;12.086;2023-12-20T11:21:53;3.53;;;1.27;;
9288;SDS011;4683;50.864;12.086;2023-12-20T11:24:26;2.87;;;1.90;;
9288;SDS011;4683;50.864;12.086;2023-12-20T11:26:57;2.03;;;1.80;;
9288;SDS011;4683;50.864;12.086;2023-12-20T11:33:18;2.00;;;1.67;;
9288;SDS011;4683;50.864;12.086;2023-12-20T11:36:13;3.73;;;2.47;;
9288;SDS011;4683;50.864;12.086;2023-12-20T11:39:18;3.40;;;1.90;;
9288;SDS011;4683;50.864;12.086;2023-12-20T11:42:05;1.83;;;1.33;;
9288;SDS011;4683;50.864;12.086;2023-12-20T11:44:48;2.03;;;1.20;;
9288;SDS011;4683;50.864;12.086;2023-12-20T11:47:36;2.37;;;1.77;;
9288;SDS011;4683;50.864;12.086;2023-12-20T11:50:24;3.57;;;1.40;;
9288;SDS011;4683;50.864;12.086;2023-12-20T11:52:59;2.60;;;1.23;;
9288;SDS011;4683;50.864;12.086;2023-12-20T11:55:29;2.80;;;1.30;;
9288;SDS011;4683;50.864;12.086;2023-12-20T11:58:10;1.63;;;0.97;;
9288;SDS011;4683;50.864;12.086;2023-12-20T12:01:01;1.00;;;0.87;;
9288;SDS011;4683;50.864;12.086;2023-12-20T12:03:33;2.90;;;1.00;;
9288;SDS011;4683;50.864;12.086;2023-12-20T12:06:17;3.33;;;1.60;;
9288;SDS011;4683;50.864;12.086;2023-12-20T12:09:16;3.10;;;1.17;;
9288;SDS011;4683;50.864;12.086;2023-12-20T12:12:13;3.33;;;1.50;;
9288;SDS011;4683;50.864;12.086;2023-12-20T12:14:50;2.00;;;0.97;;
9288;SDS011;4683;50.864;12.086;2023-12-20T12:17:19;0.97;;;0.67;;
9288;SDS011;4683;50.864;12.086;2023-12-20T12:20:01;2.53;;;0.90;;
9288;SDS011;4683;50.864;12.086;2023-12-20T12:22:58;2.20;;;1.07;;
9288;SDS011;4683;50.864;12.086;2023-12-20T12:25:50;1.23;;;0.63;;
9288;SDS011;4683;50.864;12.086;2023-12-20T12:28:19;1.43;;;0.87;;
9288;SDS011;4683;50.864;12.086;2023-12-20T12:30:56;1.27;;;0.80;;
9288;SDS011;4683;50.864;12.086;2023-12-20T12:33:31;2.03;;;1.30;;
9288;SDS011;4683;50.864;12.086;2023-12-20T12:36:02;1.03;;;0.83;;
9288;SDS011;4683;50.864;12.086;2023-12-20T12:38:38;1.40;;;1.30;;
9288;SDS011;4683;50.864;12.086;2023-12-20T12:41:08;2.53;;;1.13;;
9288;SDS011;4683;50.864;12.086;2023-12-20T12:43:57;1.43;;;1.03;;
9288;SDS011;4683;50.864;12.086;2023-12-20T12:46:32;3.40;;;1.30;;
9288;SDS011;4683;50.864;12.086;2023-12-20T12:49:15;1.43;;;0.90;;
9288;SDS011;4683;50.864;12.086;2023-12-20T12:52:09;1.53;;;1.03;;
9288;SDS011;4683;50.864;12.086;2023-12-20T12:54:57;1.43;;;0.83;;
9288;SDS011;4683;50.864;12.086;2023-12-20T12:57:49;2.70;;;0.90;;
9288;SDS011;4683;50.864;12.086;2023-12-20T13:00:19;1.37;;;1.17;;
9288;SDS011;4683;50.864;12.086;2023-12-20T13:02:47;2.00;;;1.13;;
9288;SDS011;4683;50.864;12.086;2023-12-20T13:05:22;1.67;;;1.03;;
9288;SDS011;4683;50.864;12.086;2023-12-20T13:08:08;2.90;;;1.40;;
9288;SDS011;4683;50.864;12.086;2023-12-20T13:10:57;1.27;;;0.83;;
9288;SDS011;4683;50.864;12.086;2023-12-20T13:13:26;1.80;;;1.23;;
9288;SDS011;4683;50.864;12.086;2023-12-20T13:16:04;2.63;;;1.73;;
9288;SDS011;4683;50.864;12.086;2023-12-20T13:18:48;0.80;;;0.80;;
9288;SDS011;4683;50.864;12.086;2023-12-20T13:21:16;1.97;;;0.80;;
9288;SDS011;4683;50.864;12.086;2023-12-20T13:24:02;1.20;;;1.00;;
9288;SDS011;4683;50.864;12.086;2023-12-20T13:26:34;1.30;;;1.20;;
9288;SDS011;4683;50.864;12.086;2023-12-20T13:29:22;1.43;;;0.93;;
9288;SDS011;4683;50.864;12.086;2023-12-20T13:32:06;1.47;;;1.23;;
9288;SDS011;4683;50.864;12.086;2023-12-20T13:34:46;1.10;;;1.00;;
9288;SDS011;4683;50.864;12.086;2023-12-20T13:37:20;0.77;;;0.77;;
9288;SDS011;4683;50.864;12.086;2023-12-20T13:40:04;1.53;;;1.07;;
9288;SDS011;4683;50.864;12.086;2023-12-20T13:42:57;1.57;;;1.20;;
9288;SDS011;4683;50.864;12.086;2023-12-20T13:45:34;1.43;;;1.17;;
9288;SDS011;4683;50.864;12.086;2023-12-20T13:48:03;1.63;;;1.20;;
9288;SDS011;4683;50.864;12.086;2023-12-20T13:50:42;0.90;;;0.90;;
9288;SDS011;4683;50.864;12.086;2023-12-20T13:53:19;1.73;;;1.10;;
9288;SDS011;4683;50.864;12.086;2023-12-20T13:55:57;3.93;;;1.13;;
9288;SDS011;4683;50.864;12.086;2023-12-20T13:58:38;2.00;;;1.37;;
9288;SDS011;4683;50.864;12.086;2023-12-20T14:01:27;0.90;;;0.83;;
9288;SDS011;4683;50.864;12.086;2023-12-20T14:04:18;1.20;;;1.00;;
9288;SDS011;4683;50.864;12.086;2023-12-20T14:06:57;1.77;;;0.90;;
9288;SDS011;4683;50.864;12.086;2023-12-20T14:09:37;1.77;;;1.20;;
9288;SDS011;4683;50.864;12.086;2023-12-20T14:12:13;2.43;;;1.07;;
9288;SDS011;4683;50.864;12.086;2023-12-20T14:15:04;1.20;;;1.10;;
9288;SDS011;4683;50.864;12.086;2023-12-20T14:17:57;0.80;;;0.80;;
9288;SDS011;4683;50.864;12.086;2023-12-20T14:20:42;1.07;;;0.97;;
9288;SDS011;4683;50.864;12.086;2023-12-20T14:23:37;2.23;;;1.20;;
9288;SDS011;4683;50.864;12.086;2023-12-20T14:26:20;1.23;;;1.10;;
9288;SDS011;4683;50.864;12.086;2023-12-20T14:29:02;1.37;;;1.03;;
9288;SDS011;4683;50.864;12.086;2023-12-20T14:31:52;0.97;;;0.97;;
9288;SDS011;4683;50.864;12.086;2023-12-20T14:34:36;2.37;;;1.50;;
9288;SDS011;4683;50.864;12.086;2023-12-20T14:37:20;0.90;;;0.90;;
9288;SDS011;4683;50.864;12.086;2023-12-20T14:40:15;1.03;;;0.93;;
9288;SDS011;4683;50.864;12.086;2023-12-20T14:42:59;1.70;;;1.60;;
9288;SDS011;4683;50.864;12.086;2023-12-20T14:45:32;4.00;;;1.87;;
9288;SDS011;4683;50.864;12.086;2023-12-20T14:48:23;2.97;;;1.77;;
9288;SDS011;4683;50.864;12.086;2023-12-20T14:50:53;4.83;;;1.83;;
9288;SDS011;4683;50.864;12.086;2023-12-20T14:53:38;1.67;;;1.57;;
9288;SDS011;4683;50.864;12.086;2023-12-20T14:56:26;2.57;;;1.47;;
9288;SDS011;4683;50.864;12.086;2023-12-20T14:59:05;2.73;;;1.73;;
9288;SDS011;4683;50.864;12.086;2023-12-20T15:02:07;2.10;;;1.33;;
9288;SDS011;4683;50.864;12.086;2023-12-20T15:04:45;1.60;;;1.50;;
9288;SDS011;4683;50.864;12.086;2023-12-20T15:07:40;3.07;;;1.50;;
9288;SDS011;4683;50.864;12.086;2023-12-20T15:10:25;3.03;;;1.70;;
9288;SDS011;4683;50.864;12.086;2023-12-20T15:13:15;3.97;;;1.97;;
9288;SDS011;4683;50.864;12.086;2023-12-20T15:16:10;6.13;;;2.07;;
9288;SDS011;4683;50.864;12.086;2023-12-20T15:18:44;3.53;;;2.33;;
9288;SDS011;4683;50.864;12.086;2023-12-20T15:21:29;2.67;;;1.97;;
9288;SDS011;4683;50.864;12.086;2023-12-20T15:24:24;4.30;;;2.10;;
9288;SDS011;4683;50.864;12.086;2023-12-20T15:27:17;2.97;;;1.60;;
9288;SDS011;4683;50.864;12.086;2023-12-20T15:29:58;1.13;;;0.87;;
9288;SDS011;4683;50.864;12.086;2023-12-20T15:32:28;1.83;;;1.60;;
9288;SDS011;4683;50.864;12.086;2023-12-20T15:35:00;2.00;;;1.60;;
9288;SDS011;4683;50.864;12.086;2023-12-20T15:37:47;4.53;;;2.20;;
9288;SDS011;4683;50.864;12.086;2023-12-20T15:40:17;3.20;;;1.77;;
9288;SDS011;4683;50.864;12.086;2023-12-20T15:42:48;3.40;;;1.63;;
9288;SDS011;4683;50.864;12.086;2023-12-20T15:45:17;3.40;;;1.50;;
9288;SDS011;4683;50.864;12.086;2023-12-20T15:47:58;1.73;;;1.20;;
9288;SDS011;4683;50.864;12.086;2023-12-20T15:50:46;2.03;;;1.60;;
9288;SDS011;4683;50.864;12.086;2023-12-20T15:53:35;1.37;;;0.97;;
9288;SDS011;4683;50.864;12.086;2023-12-20T15:56:16;1.33;;;1.20;;
9288;SDS011;4683;50.864;12.086;2023-12-20T15:58:45;2.57;;;1.13;;
9288;SDS011;4683;50.864;12.086;2023-12-20T16:01:15;2.57;;;1.30;;
9288;SDS011;4683;50.864;12.086;2023-12-20T16:03:56;1.90;;;1.40;;
9288;SDS011;4683;50.864;12.086;2023-12-20T16:06:39;3.60;;;1.67;;
9288;SDS011;4683;50.864;12.086;2023-12-20T16:09:12;4.07;;;1.97;;
9288;SDS011;4683;50.864;12.086;2023-12-20T16:11:45;2.20;;;1.47;;
9288;SDS011;4683;50.864;12.086;2023-12-20T16:14:14;1.97;;;1.63;;
9288;SDS011;4683;50.864;12.086;2023-12-20T16:16:48;2.20;;;1.27;;
9288;SDS011;4683;50.864;12.086;2023-12-20T16:19:26;1.20;;;0.70;;
9288;SDS011;4683;50.864;12.086;2023-12-20T16:21:55;2.67;;;1.40;;
9288;SDS011;4683;50.864;12.086;2023-12-20T16:24:32;1.00;;;0.90;;
9288;SDS011;4683;50.864;12.086;2023-12-20T16:27:05;0.93;;;0.90;;
9288;SDS011;4683;50.864;12.086;2023-12-20T16:29:36;3.00;;;1.10;;
9288;SDS011;4683;50.864;12.086;2023-12-20T16:32:06;2.87;;;1.40;;
9288;SDS011;4683;50.864;12.086;2023-12-20T16:34:34;1.27;;;1.17;;
9288;SDS011;4683;50.864;12.086;2023-12-20T16:37:11;2.50;;;2.27;;
9288;SDS011;4683;50.864;12.086;2023-12-20T16:39:58;5.27;;;2.60;;
9288;SDS011;4683;50.864;12.086;2023-12-20T16:42:36;3.07;;;2.57;;
9288;SDS011;4683;50.864;12.086;2023-12-20T16:45:09;3.70;;;2.00;;
9288;SDS011;4683;50.864;12.086;2023-12-20T16:47:59;2.43;;;1.63;;